sensor_id;sensor_type;location;lat;lon;timestamp;temperature;humidity
7516;DHT22;3799;47.184;8.538;2022-09-01T00:01:34;17.00;99.90
7516;DHT22;3799;47.184;8.538;2022-09-01T00:04:00;17.40;99.90
7516;DHT22;3799;47.184;8.538;2022-09-01T00:06:28;17.40;99.90
7516;DHT22;3799;47.184;8.538;2022-09-01T00:08:56;16.90;99.90
7516;DHT22;3799;47.184;8.538;2022-09-01T00:11:22;16.90;99.90
7516;DHT22;3799;47.184;8.538;2022-09-01T00:13:49;17.10;99.90
7516;DHT22;3799;47.184;8.538;2022-09-01T00:16:15;17.10;99.90
7516;DHT22;3799;47.184;8.538;2022-09-01T00:18:42;17.20;99.90
7516;DHT22;3799;47.184;8.538;2022-09-01T00:21:10;16.90;99.90
7516;DHT22;3799;47.184;8.538;2022-09-01T00:23:36;16.90;99.90
7516;DHT22;3799;47.184;8.538;2022-09-01T00:26:02;16.90;99.90
7516;DHT22;3799;47.184;8.538;2022-09-01T00:28:28;17.00;99.90
7516;DHT22;3799;47.184;8.538;2022-09-01T00:30:53;16.90;99.90
7516;DHT22;3799;47.184;8.538;2022-09-01T00:33:19;16.70;99.90
7516;DHT22;3799;47.184;8.538;2022-09-01T00:35:45;17.00;99.90
7516;DHT22;3799;47.184;8.538;2022-09-01T00:38:11;16.80;99.90
7516;DHT22;3799;47.184;8.538;2022-09-01T00:40:37;16.70;99.90
7516;DHT22;3799;47.184;8.538;2022-09-01T00:45:47;16.50;99.90
7516;DHT22;3799;47.184;8.538;2022-09-01T00:48:16;16.80;99.90
7516;DHT22;3799;47.184;8.538;2022-09-01T00:50:45;16.60;99.90
7516;DHT22;3799;47.184;8.538;2022-09-01T00:53:10;16.60;99.90
7516;DHT22;3799;47.184;8.538;2022-09-01T00:55:36;16.80;99.90
7516;DHT22;3799;47.184;8.538;2022-09-01T00:58:03;16.70;99.90
7516;DHT22;3799;47.184;8.538;2022-09-01T01:00:30;16.70;99.90
7516;DHT22;3799;47.184;8.538;2022-09-01T01:02:56;16.70;99.90
7516;DHT22;3799;47.184;8.538;2022-09-01T01:05:23;16.70;99.90
7516;DHT22;3799;47.184;8.538;2022-09-01T01:07:52;16.80;99.90
7516;DHT22;3799;47.184;8.538;2022-09-01T01:10:19;16.80;99.90
7516;DHT22;3799;47.184;8.538;2022-09-01T01:12:46;16.70;99.90
7516;DHT22;3799;47.184;8.538;2022-09-01T01:15:14;17.00;99.90
7516;DHT22;3799;47.184;8.538;2022-09-01T01:17:39;16.70;99.90
7516;DHT22;3799;47.184;8.538;2022-09-01T01:20:06;16.80;99.90
7516;DHT22;3799;47.184;8.538;2022-09-01T01:23:03;16.90;99.90
7516;DHT22;3799;47.184;8.538;2022-09-01T01:30:29;16.90;99.90
7516;DHT22;3799;47.184;8.538;2022-09-01T01:32:56;16.60;99.90
7516;DHT22;3799;47.184;8.538;2022-09-01T01:35:22;16.90;99.90
7516;DHT22;3799;47.184;8.538;2022-09-01T01:37:49;16.70;99.90
7516;DHT22;3799;47.184;8.538;2022-09-01T01:40:16;16.40;99.90
7516;DHT22;3799;47.184;8.538;2022-09-01T01:42:43;16.50;99.90
7516;DHT22;3799;47.184;8.538;2022-09-01T01:45:11;16.60;99.90
7516;DHT22;3799;47.184;8.538;2022-09-01T01:47:37;16.40;99.90
7516;DHT22;3799;47.184;8.538;2022-09-01T01:50:04;16.40;99.90
7516;DHT22;3799;47.184;8.538;2022-09-01T01:52:34;16.50;99.90
7516;DHT22;3799;47.184;8.538;2022-09-01T01:55:00;16.50;99.90
7516;DHT22;3799;47.184;8.538;2022-09-01T01:57:26;16.30;99.90
7516;DHT22;3799;47.184;8.538;2022-09-01T01:59:56;16.30;99.90
7516;DHT22;3799;47.184;8.538;2022-09-01T02:02:22;16.30;99.90
7516;DHT22;3799;47.184;8.538;2022-09-01T02:04:48;16.20;99.90
7516;DHT22;3799;47.184;8.538;2022-09-01T02:07:14;16.10;99.90
7516;DHT22;3799;47.184;8.538;2022-09-01T02:09:40;16.50;99.90
7516;DHT22;3799;47.184;8.538;2022-09-01T02:12:08;16.40;99.90
7516;DHT22;3799;47.184;8.538;2022-09-01T02:14:34;16.50;99.90
7516;DHT22;3799;47.184;8.538;2022-09-01T02:17:00;16.70;99.90
7516;DHT22;3799;47.184;8.538;2022-09-01T02:19:26;16.40;99.90
7516;DHT22;3799;47.184;8.538;2022-09-01T02:21:52;16.80;99.90
7516;DHT22;3799;47.184;8.538;2022-09-01T02:24:22;16.90;99.90
7516;DHT22;3799;47.184;8.538;2022-09-01T02:26:49;16.70;99.90
7516;DHT22;3799;47.184;8.538;2022-09-01T02:29:19;16.80;99.90
7516;DHT22;3799;47.184;8.538;2022-09-01T02:31:47;16.80;99.90
7516;DHT22;3799;47.184;8.538;2022-09-01T02:34:14;16.70;99.90
7516;DHT22;3799;47.184;8.538;2022-09-01T02:36:44;16.80;99.90
7516;DHT22;3799;47.184;8.538;2022-09-01T02:39:13;16.90;99.90
7516;DHT22;3799;47.184;8.538;2022-09-01T02:41:39;17.00;99.90
7516;DHT22;3799;47.184;8.538;2022-09-01T02:44:05;16.80;99.90
7516;DHT22;3799;47.184;8.538;2022-09-01T02:46:36;16.60;99.90
7516;DHT22;3799;47.184;8.538;2022-09-01T02:49:07;17.10;99.90
7516;DHT22;3799;47.184;8.538;2022-09-01T02:51:43;17.10;99.90
7516;DHT22;3799;47.184;8.538;2022-09-01T02:54:09;17.10;99.90
7516;DHT22;3799;47.184;8.538;2022-09-01T02:56:35;16.80;99.90
7516;DHT22;3799;47.184;8.538;2022-09-01T02:59:00;17.20;99.90
7516;DHT22;3799;47.184;8.538;2022-09-01T03:01:29;17.20;99.90
7516;DHT22;3799;47.184;8.538;2022-09-01T03:03:59;17.20;99.90
7516;DHT22;3799;47.184;8.538;2022-09-01T03:06:25;17.30;99.90
7516;DHT22;3799;47.184;8.538;2022-09-01T03:08:52;17.20;99.90
7516;DHT22;3799;47.184;8.538;2022-09-01T03:11:18;17.30;99.90
7516;DHT22;3799;47.184;8.538;2022-09-01T03:13:44;17.00;99.90
7516;DHT22;3799;47.184;8.538;2022-09-01T03:16:10;17.10;99.90
7516;DHT22;3799;47.184;8.538;2022-09-01T03:18:36;17.10;99.90
7516;DHT22;3799;47.184;8.538;2022-09-01T03:21:02;16.90;99.90
7516;DHT22;3799;47.184;8.538;2022-09-01T03:23:28;17.00;99.90
7516;DHT22;3799;47.184;8.538;2022-09-01T03:25:55;17.10;99.90
7516;DHT22;3799;47.184;8.538;2022-09-01T03:28:21;17.30;99.90
7516;DHT22;3799;47.184;8.538;2022-09-01T03:30:49;17.30;99.90
7516;DHT22;3799;47.184;8.538;2022-09-01T03:33:15;16.90;99.90
7516;DHT22;3799;47.184;8.538;2022-09-01T03:35:41;17.20;99.90
7516;DHT22;3799;47.184;8.538;2022-09-01T03:38:07;17.20;99.90
7516;DHT22;3799;47.184;8.538;2022-09-01T03:40:34;17.20;99.90
7516;DHT22;3799;47.184;8.538;2022-09-01T03:43:01;17.40;99.90
7516;DHT22;3799;47.184;8.538;2022-09-01T03:45:28;17.10;99.90
7516;DHT22;3799;47.184;8.538;2022-09-01T03:47:54;17.10;99.90
7516;DHT22;3799;47.184;8.538;2022-09-01T03:50:21;17.30;99.90
7516;DHT22;3799;47.184;8.538;2022-09-01T03:52:54;17.50;99.90
7516;DHT22;3799;47.184;8.538;2022-09-01T03:55:22;17.50;99.90
7516;DHT22;3799;47.184;8.538;2022-09-01T03:57:51;17.70;99.90
7516;DHT22;3799;47.184;8.538;2022-09-01T04:00:18;17.50;99.90
7516;DHT22;3799;47.184;8.538;2022-09-01T04:02:48;17.40;99.90
7516;DHT22;3799;47.184;8.538;2022-09-01T04:05:16;17.60;99.90
7516;DHT22;3799;47.184;8.538;2022-09-01T04:07:42;17.70;99.90
7516;DHT22;3799;47.184;8.538;2022-09-01T04:10:10;17.20;99.90
7516;DHT22;3799;47.184;8.538;2022-09-01T04:12:36;17.60;99.90
7516;DHT22;3799;47.184;8.538;2022-09-01T04:15:03;17.40;99.90
7516;DHT22;3799;47.184;8.538;2022-09-01T04:17:30;17.30;99.90
7516;DHT22;3799;47.184;8.538;2022-09-01T04:20:14;17.70;99.90
7516;DHT22;3799;47.184;8.538;2022-09-01T04:22:44;17.20;99.90
7516;DHT22;3799;47.184;8.538;2022-09-01T04:25:12;17.30;99.90
7516;DHT22;3799;47.184;8.538;2022-09-01T04:27:38;17.60;99.90
7516;DHT22;3799;47.184;8.538;2022-09-01T04:30:14;17.70;99.90
7516;DHT22;3799;47.184;8.538;2022-09-01T04:32:39;17.20;99.90
7516;DHT22;3799;47.184;8.538;2022-09-01T04:35:06;17.50;99.90
7516;DHT22;3799;47.184;8.538;2022-09-01T04:37:32;17.50;99.90
7516;DHT22;3799;47.184;8.538;2022-09-01T04:40:01;17.60;99.90
7516;DHT22;3799;47.184;8.538;2022-09-01T04:42:27;17.40;99.90
7516;DHT22;3799;47.184;8.538;2022-09-01T04:44:54;17.10;99.90
7516;DHT22;3799;47.184;8.538;2022-09-01T04:47:22;17.20;99.90
7516;DHT22;3799;47.184;8.538;2022-09-01T04:49:54;17.50;99.90
7516;DHT22;3799;47.184;8.538;2022-09-01T04:52:22;17.60;99.90
7516;DHT22;3799;47.184;8.538;2022-09-01T04:54:48;17.50;99.90
7516;DHT22;3799;47.184;8.538;2022-09-01T04:57:13;17.20;99.90
7516;DHT22;3799;47.184;8.538;2022-09-01T04:59:40;17.40;99.90
7516;DHT22;3799;47.184;8.538;2022-09-01T05:02:07;17.60;99.90
7516;DHT22;3799;47.184;8.538;2022-09-01T05:04:34;17.60;99.90
7516;DHT22;3799;47.184;8.538;2022-09-01T05:07:00;17.70;99.90
7516;DHT22;3799;47.184;8.538;2022-09-01T05:09:27;17.30;99.90
7516;DHT22;3799;47.184;8.538;2022-09-01T05:11:53;17.30;99.90
7516;DHT22;3799;47.184;8.538;2022-09-01T05:14:19;17.70;99.90
7516;DHT22;3799;47.184;8.538;2022-09-01T05:16:46;17.70;99.90
7516;DHT22;3799;47.184;8.538;2022-09-01T05:19:12;17.30;99.90
7516;DHT22;3799;47.184;8.538;2022-09-01T05:21:42;17.50;99.90
7516;DHT22;3799;47.184;8.538;2022-09-01T05:24:10;17.30;99.90
7516;DHT22;3799;47.184;8.538;2022-09-01T05:26:36;17.40;99.90
7516;DHT22;3799;47.184;8.538;2022-09-01T05:29:05;17.50;99.90
7516;DHT22;3799;47.184;8.538;2022-09-01T05:31:41;17.30;99.90
7516;DHT22;3799;47.184;8.538;2022-09-01T05:34:07;17.30;99.90
7516;DHT22;3799;47.184;8.538;2022-09-01T05:36:34;17.60;99.90
7516;DHT22;3799;47.184;8.538;2022-09-01T05:39:00;17.50;99.90
7516;DHT22;3799;47.184;8.538;2022-09-01T05:41:28;17.40;99.90
7516;DHT22;3799;47.184;8.538;2022-09-01T05:43:53;17.60;99.90
7516;DHT22;3799;47.184;8.538;2022-09-01T05:46:21;17.50;99.90
7516;DHT22;3799;47.184;8.538;2022-09-01T05:48:48;17.40;99.90
7516;DHT22;3799;47.184;8.538;2022-09-01T05:51:15;17.40;99.90
7516;DHT22;3799;47.184;8.538;2022-09-01T05:53:47;17.60;99.90
7516;DHT22;3799;47.184;8.538;2022-09-01T05:56:16;17.60;99.90
7516;DHT22;3799;47.184;8.538;2022-09-01T05:58:42;17.50;99.90
7516;DHT22;3799;47.184;8.538;2022-09-01T06:01:08;17.70;99.90
7516;DHT22;3799;47.184;8.538;2022-09-01T06:03:37;17.60;99.90
7516;DHT22;3799;47.184;8.538;2022-09-01T06:06:05;17.70;99.90
7516;DHT22;3799;47.184;8.538;2022-09-01T06:08:34;17.60;99.90
7516;DHT22;3799;47.184;8.538;2022-09-01T06:11:01;17.70;99.90
7516;DHT22;3799;47.184;8.538;2022-09-01T06:13:28;17.70;99.90
7516;DHT22;3799;47.184;8.538;2022-09-01T06:15:54;17.80;99.90
7516;DHT22;3799;47.184;8.538;2022-09-01T06:18:22;17.60;99.90
7516;DHT22;3799;47.184;8.538;2022-09-01T06:20:48;17.70;99.90
7516;DHT22;3799;47.184;8.538;2022-09-01T06:23:14;17.60;99.90
7516;DHT22;3799;47.184;8.538;2022-09-01T06:25:42;17.70;99.90
7516;DHT22;3799;47.184;8.538;2022-09-01T06:28:14;18.10;99.90
7516;DHT22;3799;47.184;8.538;2022-09-01T06:30:40;18.10;99.90
7516;DHT22;3799;47.184;8.538;2022-09-01T06:33:07;18.20;99.90
7516;DHT22;3799;47.184;8.538;2022-09-01T06:35:36;18.30;99.90
7516;DHT22;3799;47.184;8.538;2022-09-01T06:38:01;18.40;99.90
7516;DHT22;3799;47.184;8.538;2022-09-01T06:40:27;18.50;99.90
7516;DHT22;3799;47.184;8.538;2022-09-01T06:42:53;18.50;99.90
7516;DHT22;3799;47.184;8.538;2022-09-01T06:45:20;18.80;99.90
7516;DHT22;3799;47.184;8.538;2022-09-01T06:47:47;18.80;99.90
7516;DHT22;3799;47.184;8.538;2022-09-01T06:50:14;18.90;99.90
7516;DHT22;3799;47.184;8.538;2022-09-01T06:52:40;18.90;99.90
7516;DHT22;3799;47.184;8.538;2022-09-01T06:55:13;19.00;99.90
7516;DHT22;3799;47.184;8.538;2022-09-01T06:57:39;18.80;99.90
7516;DHT22;3799;47.184;8.538;2022-09-01T07:00:06;18.60;99.90
7516;DHT22;3799;47.184;8.538;2022-09-01T07:02:52;18.30;99.90
7516;DHT22;3799;47.184;8.538;2022-09-01T07:05:19;18.20;99.90
7516;DHT22;3799;47.184;8.538;2022-09-01T07:07:49;18.30;99.90
7516;DHT22;3799;47.184;8.538;2022-09-01T07:10:16;18.20;99.90
7516;DHT22;3799;47.184;8.538;2022-09-01T07:12:45;18.00;99.90
7516;DHT22;3799;47.184;8.538;2022-09-01T07:15:10;18.10;99.90
7516;DHT22;3799;47.184;8.538;2022-09-01T07:17:40;18.00;99.90
7516;DHT22;3799;47.184;8.538;2022-09-01T07:20:07;18.10;99.90
7516;DHT22;3799;47.184;8.538;2022-09-01T07:22:35;17.90;99.90
7516;DHT22;3799;47.184;8.538;2022-09-01T07:25:01;18.30;99.90
7516;DHT22;3799;47.184;8.538;2022-09-01T07:27:27;18.10;99.90
7516;DHT22;3799;47.184;8.538;2022-09-01T07:29:53;18.30;99.90
7516;DHT22;3799;47.184;8.538;2022-09-01T07:32:20;18.10;99.90
7516;DHT22;3799;47.184;8.538;2022-09-01T07:34:46;18.40;99.90
7516;DHT22;3799;47.184;8.538;2022-09-01T07:37:14;18.20;99.90
7516;DHT22;3799;47.184;8.538;2022-09-01T07:39:42;18.50;99.90
7516;DHT22;3799;47.184;8.538;2022-09-01T07:42:10;18.60;99.90
7516;DHT22;3799;47.184;8.538;2022-09-01T07:44:36;18.50;99.90
7516;DHT22;3799;47.184;8.538;2022-09-01T07:47:03;18.40;99.90
7516;DHT22;3799;47.184;8.538;2022-09-01T07:49:33;18.80;99.90
7516;DHT22;3799;47.184;8.538;2022-09-01T07:52:03;18.60;99.90
7516;DHT22;3799;47.184;8.538;2022-09-01T07:54:29;18.70;99.90
7516;DHT22;3799;47.184;8.538;2022-09-01T07:56:55;18.80;99.90
7516;DHT22;3799;47.184;8.538;2022-09-01T07:59:21;18.70;99.90
7516;DHT22;3799;47.184;8.538;2022-09-01T08:01:47;19.10;99.90
7516;DHT22;3799;47.184;8.538;2022-09-01T08:04:12;19.00;99.90
7516;DHT22;3799;47.184;8.538;2022-09-01T08:06:38;19.00;99.90
7516;DHT22;3799;47.184;8.538;2022-09-01T08:09:03;18.80;99.90
7516;DHT22;3799;47.184;8.538;2022-09-01T08:11:31;19.00;99.90
7516;DHT22;3799;47.184;8.538;2022-09-01T08:13:58;19.30;99.90
7516;DHT22;3799;47.184;8.538;2022-09-01T08:16:25;19.30;99.90
7516;DHT22;3799;47.184;8.538;2022-09-01T08:18:51;19.40;99.90
7516;DHT22;3799;47.184;8.538;2022-09-01T08:21:17;19.40;99.90
7516;DHT22;3799;47.184;8.538;2022-09-01T08:23:46;19.10;99.90
7516;DHT22;3799;47.184;8.538;2022-09-01T08:26:14;19.20;99.90
7516;DHT22;3799;47.184;8.538;2022-09-01T08:28:40;19.50;99.90
7516;DHT22;3799;47.184;8.538;2022-09-01T08:31:10;19.90;99.90
7516;DHT22;3799;47.184;8.538;2022-09-01T08:33:36;19.70;99.90
7516;DHT22;3799;47.184;8.538;2022-09-01T08:36:02;19.50;99.90
7516;DHT22;3799;47.184;8.538;2022-09-01T08:38:28;19.90;99.90
7516;DHT22;3799;47.184;8.538;2022-09-01T08:40:55;20.00;99.90
7516;DHT22;3799;47.184;8.538;2022-09-01T08:43:25;20.10;99.90
7516;DHT22;3799;47.184;8.538;2022-09-01T08:45:54;20.30;99.90
7516;DHT22;3799;47.184;8.538;2022-09-01T08:48:21;20.10;99.90
7516;DHT22;3799;47.184;8.538;2022-09-01T08:50:51;20.40;99.90
7516;DHT22;3799;47.184;8.538;2022-09-01T08:53:30;20.30;99.90
7516;DHT22;3799;47.184;8.538;2022-09-01T08:55:58;20.30;99.90
7516;DHT22;3799;47.184;8.538;2022-09-01T08:58:24;20.40;99.90
7516;DHT22;3799;47.184;8.538;2022-09-01T09:00:56;20.50;99.90
7516;DHT22;3799;47.184;8.538;2022-09-01T09:06:12;20.70;99.90
7516;DHT22;3799;47.184;8.538;2022-09-01T09:11:12;20.80;99.90
7516;DHT22;3799;47.184;8.538;2022-09-01T09:19:02;21.00;99.90
7516;DHT22;3799;47.184;8.538;2022-09-01T09:21:38;21.30;99.90
7516;DHT22;3799;47.184;8.538;2022-09-01T09:26:33;21.80;98.60
7516;DHT22;3799;47.184;8.538;2022-09-01T09:28:59;22.00;98.50
7516;DHT22;3799;47.184;8.538;2022-09-01T09:31:39;22.10;98.20
7516;DHT22;3799;47.184;8.538;2022-09-01T09:37:01;22.10;96.70
7516;DHT22;3799;47.184;8.538;2022-09-01T09:39:40;22.00;96.80
7516;DHT22;3799;47.184;8.538;2022-09-01T09:42:07;22.00;96.90
7516;DHT22;3799;47.184;8.538;2022-09-01T09:44:38;22.00;95.80
7516;DHT22;3799;47.184;8.538;2022-09-01T09:47:05;22.00;96.00
7516;DHT22;3799;47.184;8.538;2022-09-01T09:49:32;22.00;95.50
7516;DHT22;3799;47.184;8.538;2022-09-01T09:54:28;21.80;95.80
7516;DHT22;3799;47.184;8.538;2022-09-01T09:59:40;21.50;95.50
7516;DHT22;3799;47.184;8.538;2022-09-01T10:04:42;21.80;95.20
7516;DHT22;3799;47.184;8.538;2022-09-01T10:07:28;22.10;95.70
7516;DHT22;3799;47.184;8.538;2022-09-01T10:09:54;22.50;95.20
7516;DHT22;3799;47.184;8.538;2022-09-01T10:12:22;22.80;92.10
7516;DHT22;3799;47.184;8.538;2022-09-01T10:14:51;22.90;92.50
7516;DHT22;3799;47.184;8.538;2022-09-01T10:17:28;23.00;91.60
7516;DHT22;3799;47.184;8.538;2022-09-01T10:20:03;23.10;91.00
7516;DHT22;3799;47.184;8.538;2022-09-01T10:22:32;23.30;91.40
7516;DHT22;3799;47.184;8.538;2022-09-01T10:24:59;23.40;91.10
7516;DHT22;3799;47.184;8.538;2022-09-01T10:27:26;23.60;91.40
7516;DHT22;3799;47.184;8.538;2022-09-01T10:29:55;23.70;91.00
7516;DHT22;3799;47.184;8.538;2022-09-01T10:32:33;23.80;90.80
7516;DHT22;3799;47.184;8.538;2022-09-01T10:34:59;24.00;88.40
7516;DHT22;3799;47.184;8.538;2022-09-01T10:37:26;24.00;84.60
7516;DHT22;3799;47.184;8.538;2022-09-01T10:42:58;24.20;80.80
7516;DHT22;3799;47.184;8.538;2022-09-01T10:47:53;24.60;77.20
7516;DHT22;3799;47.184;8.538;2022-09-01T10:50:27;24.70;76.00
7516;DHT22;3799;47.184;8.538;2022-09-01T10:52:54;24.80;73.40
7516;DHT22;3799;47.184;8.538;2022-09-01T10:57:50;25.00;73.10
7516;DHT22;3799;47.184;8.538;2022-09-01T11:05:34;25.10;74.70
7516;DHT22;3799;47.184;8.538;2022-09-01T11:08:38;25.20;75.60
7516;DHT22;3799;47.184;8.538;2022-09-01T11:18:47;24.80;69.40
7516;DHT22;3799;47.184;8.538;2022-09-01T11:21:22;24.70;69.00
7516;DHT22;3799;47.184;8.538;2022-09-01T11:23:49;24.70;71.10
7516;DHT22;3799;47.184;8.538;2022-09-01T11:28:56;25.00;71.80
7516;DHT22;3799;47.184;8.538;2022-09-01T11:31:37;25.30;70.10
7516;DHT22;3799;47.184;8.538;2022-09-01T11:34:09;25.50;71.60
7516;DHT22;3799;47.184;8.538;2022-09-01T11:36:43;25.30;71.10
7516;DHT22;3799;47.184;8.538;2022-09-01T11:46:47;25.40;64.90
7516;DHT22;3799;47.184;8.538;2022-09-01T11:49:29;25.40;62.70
7516;DHT22;3799;47.184;8.538;2022-09-01T11:51:56;25.20;63.30
7516;DHT22;3799;47.184;8.538;2022-09-01T11:54:23;24.90;66.00
7516;DHT22;3799;47.184;8.538;2022-09-01T11:56:49;25.10;66.10
7516;DHT22;3799;47.184;8.538;2022-09-01T11:59:29;25.40;60.20
7516;DHT22;3799;47.184;8.538;2022-09-01T12:01:56;25.50;61.90
7516;DHT22;3799;47.184;8.538;2022-09-01T12:04:23;25.70;64.20
7516;DHT22;3799;47.184;8.538;2022-09-01T12:06:53;25.90;61.40
7516;DHT22;3799;47.184;8.538;2022-09-01T12:09:20;26.10;61.90
7516;DHT22;3799;47.184;8.538;2022-09-01T12:11:45;26.30;60.30
7516;DHT22;3799;47.184;8.538;2022-09-01T12:14:17;26.60;59.30
7516;DHT22;3799;47.184;8.538;2022-09-01T12:16:43;26.70;58.80
7516;DHT22;3799;47.184;8.538;2022-09-01T12:19:21;26.90;58.40
7516;DHT22;3799;47.184;8.538;2022-09-01T12:21:54;27.00;57.80
7516;DHT22;3799;47.184;8.538;2022-09-01T12:24:22;27.10;56.90
7516;DHT22;3799;47.184;8.538;2022-09-01T12:26:49;27.10;58.00
7516;DHT22;3799;47.184;8.538;2022-09-01T12:29:15;27.10;58.30
7516;DHT22;3799;47.184;8.538;2022-09-01T12:31:42;27.20;57.20
7516;DHT22;3799;47.184;8.538;2022-09-01T12:39:38;27.40;55.90
7516;DHT22;3799;47.184;8.538;2022-09-01T12:44:41;27.40;54.50
7516;DHT22;3799;47.184;8.538;2022-09-01T12:47:08;27.60;55.20
7516;DHT22;3799;47.184;8.538;2022-09-01T12:49:35;27.80;55.00
7516;DHT22;3799;47.184;8.538;2022-09-01T12:52:10;27.90;54.40
7516;DHT22;3799;47.184;8.538;2022-09-01T12:54:36;28.00;54.70
7516;DHT22;3799;47.184;8.538;2022-09-01T12:57:02;28.00;54.90
7516;DHT22;3799;47.184;8.538;2022-09-01T12:59:28;28.10;53.50
7516;DHT22;3799;47.184;8.538;2022-09-01T13:01:54;28.20;54.00
7516;DHT22;3799;47.184;8.538;2022-09-01T13:06:45;28.60;54.10
7516;DHT22;3799;47.184;8.538;2022-09-01T13:09:10;28.80;53.60
7516;DHT22;3799;47.184;8.538;2022-09-01T13:11:36;29.00;53.90
7516;DHT22;3799;47.184;8.538;2022-09-01T13:14:02;29.00;52.80
7516;DHT22;3799;47.184;8.538;2022-09-01T13:16:28;29.10;53.50
7516;DHT22;3799;47.184;8.538;2022-09-01T13:18:53;29.30;52.90
7516;DHT22;3799;47.184;8.538;2022-09-01T13:21:19;29.50;53.00
7516;DHT22;3799;47.184;8.538;2022-09-01T13:23:46;29.60;52.50
7516;DHT22;3799;47.184;8.538;2022-09-01T13:26:11;29.80;52.20
7516;DHT22;3799;47.184;8.538;2022-09-01T13:28:37;29.80;51.70
7516;DHT22;3799;47.184;8.538;2022-09-01T13:31:04;29.70;51.00
7516;DHT22;3799;47.184;8.538;2022-09-01T13:33:30;29.60;51.10
7516;DHT22;3799;47.184;8.538;2022-09-01T13:35:56;29.50;49.90
7516;DHT22;3799;47.184;8.538;2022-09-01T13:38:22;29.30;49.50
7516;DHT22;3799;47.184;8.538;2022-09-01T13:40:48;28.90;49.90
7516;DHT22;3799;47.184;8.538;2022-09-01T13:43:14;28.60;51.60
7516;DHT22;3799;47.184;8.538;2022-09-01T13:45:40;28.70;51.80
7516;DHT22;3799;47.184;8.538;2022-09-01T13:48:06;29.10;50.90
7516;DHT22;3799;47.184;8.538;2022-09-01T13:50:32;29.50;50.40
7516;DHT22;3799;47.184;8.538;2022-09-01T13:53:00;29.70;50.60
7516;DHT22;3799;47.184;8.538;2022-09-01T13:55:30;29.70;50.00
7516;DHT22;3799;47.184;8.538;2022-09-01T13:57:56;29.70;50.20
7516;DHT22;3799;47.184;8.538;2022-09-01T14:00:24;29.80;49.70
7516;DHT22;3799;47.184;8.538;2022-09-01T14:02:52;29.70;48.90
7516;DHT22;3799;47.184;8.538;2022-09-01T14:05:18;29.60;48.70
7516;DHT22;3799;47.184;8.538;2022-09-01T14:07:45;29.40;50.20
7516;DHT22;3799;47.184;8.538;2022-09-01T14:10:11;29.20;48.60
7516;DHT22;3799;47.184;8.538;2022-09-01T14:12:37;29.10;49.40
7516;DHT22;3799;47.184;8.538;2022-09-01T14:15:04;29.30;49.30
7516;DHT22;3799;47.184;8.538;2022-09-01T14:17:29;29.70;49.50
7516;DHT22;3799;47.184;8.538;2022-09-01T14:19:55;29.80;47.90
7516;DHT22;3799;47.184;8.538;2022-09-01T14:22:21;30.10;48.20
7516;DHT22;3799;47.184;8.538;2022-09-01T14:24:47;30.20;48.20
7516;DHT22;3799;47.184;8.538;2022-09-01T14:27:13;30.50;48.20
7516;DHT22;3799;47.184;8.538;2022-09-01T14:29:39;30.70;47.50
7516;DHT22;3799;47.184;8.538;2022-09-01T14:32:04;30.80;47.20
7516;DHT22;3799;47.184;8.538;2022-09-01T14:34:32;31.00;46.80
7516;DHT22;3799;47.184;8.538;2022-09-01T14:36:58;31.00;46.20
7516;DHT22;3799;47.184;8.538;2022-09-01T14:39:24;31.10;46.50
7516;DHT22;3799;47.184;8.538;2022-09-01T14:41:49;31.10;46.70
7516;DHT22;3799;47.184;8.538;2022-09-01T14:44:15;31.10;46.50
7516;DHT22;3799;47.184;8.538;2022-09-01T14:46:40;31.10;47.10
7516;DHT22;3799;47.184;8.538;2022-09-01T14:49:06;31.10;47.00
7516;DHT22;3799;47.184;8.538;2022-09-01T14:51:32;31.10;46.90
7516;DHT22;3799;47.184;8.538;2022-09-01T14:53:58;31.00;46.50
7516;DHT22;3799;47.184;8.538;2022-09-01T14:56:24;30.90;46.30
7516;DHT22;3799;47.184;8.538;2022-09-01T14:58:50;30.70;46.60
7516;DHT22;3799;47.184;8.538;2022-09-01T15:01:17;30.50;46.30
7516;DHT22;3799;47.184;8.538;2022-09-01T15:03:45;30.30;46.50
7516;DHT22;3799;47.184;8.538;2022-09-01T15:06:12;30.30;47.00
7516;DHT22;3799;47.184;8.538;2022-09-01T15:08:38;30.50;47.40
7516;DHT22;3799;47.184;8.538;2022-09-01T15:11:10;30.50;47.60
7516;DHT22;3799;47.184;8.538;2022-09-01T15:13:37;30.10;47.90
7516;DHT22;3799;47.184;8.538;2022-09-01T15:16:03;29.90;47.80
7516;DHT22;3799;47.184;8.538;2022-09-01T15:18:29;29.90;47.70
7516;DHT22;3799;47.184;8.538;2022-09-01T15:20:55;29.90;47.60
7516;DHT22;3799;47.184;8.538;2022-09-01T15:23:21;30.00;47.50
7516;DHT22;3799;47.184;8.538;2022-09-01T15:25:49;30.20;47.30
7516;DHT22;3799;47.184;8.538;2022-09-01T15:28:15;30.20;46.90
7516;DHT22;3799;47.184;8.538;2022-09-01T15:30:41;30.30;47.00
7516;DHT22;3799;47.184;8.538;2022-09-01T15:33:09;30.60;46.60
7516;DHT22;3799;47.184;8.538;2022-09-01T15:35:34;30.80;46.00
7516;DHT22;3799;47.184;8.538;2022-09-01T15:38:00;31.00;45.90
7516;DHT22;3799;47.184;8.538;2022-09-01T15:40:26;30.70;46.20
7516;DHT22;3799;47.184;8.538;2022-09-01T15:42:52;30.10;46.40
7516;DHT22;3799;47.184;8.538;2022-09-01T15:45:19;29.70;47.00
7516;DHT22;3799;47.184;8.538;2022-09-01T15:47:45;29.60;46.80
7516;DHT22;3799;47.184;8.538;2022-09-01T15:50:14;29.70;47.20
7516;DHT22;3799;47.184;8.538;2022-09-01T15:52:45;29.80;47.00
7516;DHT22;3799;47.184;8.538;2022-09-01T15:55:14;30.00;47.00
7516;DHT22;3799;47.184;8.538;2022-09-01T15:57:40;30.30;46.50
7516;DHT22;3799;47.184;8.538;2022-09-01T16:00:06;30.40;45.70
7516;DHT22;3799;47.184;8.538;2022-09-01T16:02:32;30.40;45.40
7516;DHT22;3799;47.184;8.538;2022-09-01T16:04:57;30.40;45.30
7516;DHT22;3799;47.184;8.538;2022-09-01T16:07:23;30.30;45.50
7516;DHT22;3799;47.184;8.538;2022-09-01T16:09:49;30.00;46.20
7516;DHT22;3799;47.184;8.538;2022-09-01T16:12:16;29.70;46.50
7516;DHT22;3799;47.184;8.538;2022-09-01T16:14:45;29.60;47.00
7516;DHT22;3799;47.184;8.538;2022-09-01T16:22:22;29.60;47.50
7516;DHT22;3799;47.184;8.538;2022-09-01T16:24:51;29.30;47.70
7516;DHT22;3799;47.184;8.538;2022-09-01T16:27:20;28.90;47.60
7516;DHT22;3799;47.184;8.538;2022-09-01T16:29:48;28.50;48.10
7516;DHT22;3799;47.184;8.538;2022-09-01T16:32:16;28.40;48.00
7516;DHT22;3799;47.184;8.538;2022-09-01T16:34:44;28.50;48.30
7516;DHT22;3799;47.184;8.538;2022-09-01T16:39:39;28.20;48.60
7516;DHT22;3799;47.184;8.538;2022-09-01T16:42:12;28.00;48.90
7516;DHT22;3799;47.184;8.538;2022-09-01T16:44:56;27.90;49.10
7516;DHT22;3799;47.184;8.538;2022-09-01T16:47:35;28.00;49.10
7516;DHT22;3799;47.184;8.538;2022-09-01T16:52:32;28.50;49.00
7516;DHT22;3799;47.184;8.538;2022-09-01T16:57:34;28.90;49.10
7516;DHT22;3799;47.184;8.538;2022-09-01T17:00:06;29.00;48.80
7516;DHT22;3799;47.184;8.538;2022-09-01T17:02:57;29.00;48.70
7516;DHT22;3799;47.184;8.538;2022-09-01T17:07:57;29.00;48.20
7516;DHT22;3799;47.184;8.538;2022-09-01T17:10:31;28.90;47.70
7516;DHT22;3799;47.184;8.538;2022-09-01T17:13:08;28.80;47.90
7516;DHT22;3799;47.184;8.538;2022-09-01T17:15:40;28.60;48.50
7516;DHT22;3799;47.184;8.538;2022-09-01T17:18:29;28.50;48.90
7516;DHT22;3799;47.184;8.538;2022-09-01T17:21:01;28.40;48.80
7516;DHT22;3799;47.184;8.538;2022-09-01T17:23:28;28.30;49.20
7516;DHT22;3799;47.184;8.538;2022-09-01T17:28:47;28.00;49.20
7516;DHT22;3799;47.184;8.538;2022-09-01T17:31:20;27.80;49.70
7516;DHT22;3799;47.184;8.538;2022-09-01T17:34:04;27.60;50.20
7516;DHT22;3799;47.184;8.538;2022-09-01T17:46:51;26.60;51.80
7516;DHT22;3799;47.184;8.538;2022-09-01T17:54:53;25.80;53.10